sensor_id;sensor_type;location;lat;lon;timestamp;temperature;humidity
15160;DHT22;7680;48.800;9.680;2023-02-03T00:01:23;5.00;99.90
15160;DHT22;7680;48.800;9.680;2023-02-03T00:03:57;5.00;99.90
15160;DHT22;7680;48.800;9.680;2023-02-03T00:06:31;5.00;99.90
15160;DHT22;7680;48.800;9.680;2023-02-03T00:09:04;5.10;99.90
15160;DHT22;7680;48.800;9.680;2023-02-03T00:11:37;5.10;99.90
15160;DHT22;7680;48.800;9.680;2023-02-03T00:14:10;5.10;99.90
15160;DHT22;7680;48.800;9.680;2023-02-03T00:16:43;5.10;99.90
15160;DHT22;7680;48.800;9.680;2023-02-03T00:19:18;5.10;99.90
15160;DHT22;7680;48.800;9.680;2023-02-03T00:21:51;5.10;99.90
15160;DHT22;7680;48.800;9.680;2023-02-03T00:24:24;5.20;99.90
15160;DHT22;7680;48.800;9.680;2023-02-03T00:26:57;5.20;99.90
15160;DHT22;7680;48.800;9.680;2023-02-03T00:29:30;5.30;99.90
15160;DHT22;7680;48.800;9.680;2023-02-03T00:32:04;5.40;99.90
15160;DHT22;7680;48.800;9.680;2023-02-03T00:34:38;5.30;99.90
15160;DHT22;7680;48.800;9.680;2023-02-03T00:37:12;5.30;99.90
15160;DHT22;7680;48.800;9.680;2023-02-03T00:39:45;5.30;99.90
15160;DHT22;7680;48.800;9.680;2023-02-03T00:42:18;5.30;99.90
15160;DHT22;7680;48.800;9.680;2023-02-03T00:44:51;5.40;99.90
15160;DHT22;7680;48.800;9.680;2023-02-03T00:47:24;5.40;99.90
15160;DHT22;7680;48.800;9.680;2023-02-03T00:49:59;5.40;99.90
15160;DHT22;7680;48.800;9.680;2023-02-03T00:52:32;5.40;99.90
15160;DHT22;7680;48.800;9.680;2023-02-03T00:55:06;5.50;99.90
15160;DHT22;7680;48.800;9.680;2023-02-03T00:57:40;5.40;99.90
15160;DHT22;7680;48.800;9.680;2023-02-03T01:00:14;5.40;99.90
15160;DHT22;7680;48.800;9.680;2023-02-03T01:02:47;5.40;99.90
15160;DHT22;7680;48.800;9.680;2023-02-03T01:05:22;5.50;99.90
15160;DHT22;7680;48.800;9.680;2023-02-03T01:07:55;5.50;99.90
15160;DHT22;7680;48.800;9.680;2023-02-03T01:10:29;5.50;99.90
15160;DHT22;7680;48.800;9.680;2023-02-03T01:13:02;5.60;99.90
15160;DHT22;7680;48.800;9.680;2023-02-03T01:15:35;5.50;99.90
15160;DHT22;7680;48.800;9.680;2023-02-03T01:18:08;5.50;99.90
15160;DHT22;7680;48.800;9.680;2023-02-03T01:20:42;5.40;99.90
15160;DHT22;7680;48.800;9.680;2023-02-03T01:23:16;5.50;99.90
15160;DHT22;7680;48.800;9.680;2023-02-03T01:25:49;5.50;99.90
15160;DHT22;7680;48.800;9.680;2023-02-03T01:28:22;5.50;99.90
15160;DHT22;7680;48.800;9.680;2023-02-03T01:30:55;5.60;99.90
15160;DHT22;7680;48.800;9.680;2023-02-03T01:33:28;5.60;99.90
15160;DHT22;7680;48.800;9.680;2023-02-03T01:36:03;5.60;99.90
15160;DHT22;7680;48.800;9.680;2023-02-03T01:38:38;5.50;99.90
15160;DHT22;7680;48.800;9.680;2023-02-03T01:41:13;5.40;99.90
15160;DHT22;7680;48.800;9.680;2023-02-03T01:43:48;5.40;99.90
15160;DHT22;7680;48.800;9.680;2023-02-03T01:46:29;5.40;99.90
15160;DHT22;7680;48.800;9.680;2023-02-03T01:49:06;5.50;99.90
15160;DHT22;7680;48.800;9.680;2023-02-03T01:51:43;5.40;99.90
15160;DHT22;7680;48.800;9.680;2023-02-03T01:54:21;5.40;99.90
15160;DHT22;7680;48.800;9.680;2023-02-03T01:57:00;5.40;99.90
15160;DHT22;7680;48.800;9.680;2023-02-03T01:59:35;5.30;99.90
15160;DHT22;7680;48.800;9.680;2023-02-03T02:02:08;5.30;99.90
15160;DHT22;7680;48.800;9.680;2023-02-03T02:04:51;5.50;99.90
15160;DHT22;7680;48.800;9.680;2023-02-03T02:07:28;5.50;99.90
15160;DHT22;7680;48.800;9.680;2023-02-03T02:10:01;5.50;99.90
15160;DHT22;7680;48.800;9.680;2023-02-03T02:12:35;5.40;99.90
15160;DHT22;7680;48.800;9.680;2023-02-03T02:15:08;5.40;99.90
15160;DHT22;7680;48.800;9.680;2023-02-03T02:17:56;5.40;99.90
15160;DHT22;7680;48.800;9.680;2023-02-03T02:27:13;5.40;99.90
15160;DHT22;7680;48.800;9.680;2023-02-03T02:33:33;5.40;99.90
15160;DHT22;7680;48.800;9.680;2023-02-03T02:36:18;5.50;99.90
15160;DHT22;7680;48.800;9.680;2023-02-03T02:39:01;5.50;99.90
15160;DHT22;7680;48.800;9.680;2023-02-03T02:41:43;5.60;99.90
15160;DHT22;7680;48.800;9.680;2023-02-03T02:44:23;5.50;99.90
15160;DHT22;7680;48.800;9.680;2023-02-03T02:47:00;5.50;99.90
15160;DHT22;7680;48.800;9.680;2023-02-03T02:49:43;5.60;99.90
15160;DHT22;7680;48.800;9.680;2023-02-03T02:52:18;5.60;99.90
15160;DHT22;7680;48.800;9.680;2023-02-03T02:54:55;5.50;99.90
15160;DHT22;7680;48.800;9.680;2023-02-03T02:57:34;5.40;99.90
15160;DHT22;7680;48.800;9.680;2023-02-03T03:00:09;5.60;99.90
15160;DHT22;7680;48.800;9.680;2023-02-03T03:02:42;5.50;99.90
15160;DHT22;7680;48.800;9.680;2023-02-03T03:05:17;5.50;99.90
15160;DHT22;7680;48.800;9.680;2023-02-03T03:07:56;5.50;99.90
15160;DHT22;7680;48.800;9.680;2023-02-03T03:10:33;5.50;99.90
15160;DHT22;7680;48.800;9.680;2023-02-03T03:13:11;5.50;99.90
15160;DHT22;7680;48.800;9.680;2023-02-03T03:15:48;5.50;99.90
15160;DHT22;7680;48.800;9.680;2023-02-03T03:18:26;5.60;99.90
15160;DHT22;7680;48.800;9.680;2023-02-03T03:21:04;5.60;99.90
15160;DHT22;7680;48.800;9.680;2023-02-03T03:23:39;5.60;99.90
15160;DHT22;7680;48.800;9.680;2023-02-03T03:26:16;5.60;99.90
15160;DHT22;7680;48.800;9.680;2023-02-03T03:28:57;5.60;99.90
15160;DHT22;7680;48.800;9.680;2023-02-03T03:31:35;5.60;99.90
15160;DHT22;7680;48.800;9.680;2023-02-03T03:34:10;5.70;99.90
15160;DHT22;7680;48.800;9.680;2023-02-03T03:36:47;5.60;99.90
15160;DHT22;7680;48.800;9.680;2023-02-03T03:39:27;5.60;99.90
15160;DHT22;7680;48.800;9.680;2023-02-03T03:42:09;5.70;99.90
15160;DHT22;7680;48.800;9.680;2023-02-03T03:44:49;5.60;99.90
15160;DHT22;7680;48.800;9.680;2023-02-03T03:47:28;5.70;99.90
15160;DHT22;7680;48.800;9.680;2023-02-03T03:50:04;5.60;99.90
15160;DHT22;7680;48.800;9.680;2023-02-03T03:52:43;5.50;99.90
15160;DHT22;7680;48.800;9.680;2023-02-03T03:55:18;5.60;99.90
15160;DHT22;7680;48.800;9.680;2023-02-03T03:57:54;5.60;99.90
15160;DHT22;7680;48.800;9.680;2023-02-03T04:00:33;5.60;99.90
15160;DHT22;7680;48.800;9.680;2023-02-03T04:03:11;5.60;99.90
15160;DHT22;7680;48.800;9.680;2023-02-03T04:05:47;5.70;99.90
15160;DHT22;7680;48.800;9.680;2023-02-03T04:08:22;5.60;99.90
15160;DHT22;7680;48.800;9.680;2023-02-03T04:10:55;5.60;99.90
15160;DHT22;7680;48.800;9.680;2023-02-03T04:13:28;5.60;99.90
15160;DHT22;7680;48.800;9.680;2023-02-03T04:16:01;5.60;99.90
15160;DHT22;7680;48.800;9.680;2023-02-03T04:18:34;5.60;99.90
15160;DHT22;7680;48.800;9.680;2023-02-03T04:21:07;5.70;99.90
15160;DHT22;7680;48.800;9.680;2023-02-03T04:23:41;5.60;99.90
15160;DHT22;7680;48.800;9.680;2023-02-03T04:26:15;5.70;99.90
15160;DHT22;7680;48.800;9.680;2023-02-03T04:28:48;5.70;99.90
15160;DHT22;7680;48.800;9.680;2023-02-03T04:31:21;5.70;99.90
15160;DHT22;7680;48.800;9.680;2023-02-03T04:33:55;5.70;99.90
15160;DHT22;7680;48.800;9.680;2023-02-03T04:36:28;5.70;99.90
15160;DHT22;7680;48.800;9.680;2023-02-03T04:39:02;5.60;99.90
15160;DHT22;7680;48.800;9.680;2023-02-03T04:41:36;5.70;99.90
15160;DHT22;7680;48.800;9.680;2023-02-03T04:44:09;5.70;99.90
15160;DHT22;7680;48.800;9.680;2023-02-03T04:46:42;5.70;99.90
15160;DHT22;7680;48.800;9.680;2023-02-03T04:49:15;5.60;99.90
15160;DHT22;7680;48.800;9.680;2023-02-03T04:51:48;5.60;99.90
15160;DHT22;7680;48.800;9.680;2023-02-03T04:54:23;5.50;99.90
15160;DHT22;7680;48.800;9.680;2023-02-03T04:56:56;5.50;99.90
15160;DHT22;7680;48.800;9.680;2023-02-03T04:59:29;5.40;99.90
15160;DHT22;7680;48.800;9.680;2023-02-03T05:02:03;5.40;99.90
15160;DHT22;7680;48.800;9.680;2023-02-03T05:04:36;5.40;99.90
15160;DHT22;7680;48.800;9.680;2023-02-03T05:07:09;5.40;99.90
15160;DHT22;7680;48.800;9.680;2023-02-03T05:09:45;5.50;99.90
15160;DHT22;7680;48.800;9.680;2023-02-03T05:12:18;5.50;99.90
15160;DHT22;7680;48.800;9.680;2023-02-03T05:14:51;5.60;99.90
15160;DHT22;7680;48.800;9.680;2023-02-03T05:17:24;5.50;99.90
15160;DHT22;7680;48.800;9.680;2023-02-03T05:19:57;5.60;99.90
15160;DHT22;7680;48.800;9.680;2023-02-03T05:22:30;5.60;99.90
15160;DHT22;7680;48.800;9.680;2023-02-03T05:25:05;5.50;99.90
15160;DHT22;7680;48.800;9.680;2023-02-03T05:27:40;5.40;99.90
15160;DHT22;7680;48.800;9.680;2023-02-03T05:30:13;5.30;99.90
15160;DHT22;7680;48.800;9.680;2023-02-03T05:32:47;5.40;99.90
15160;DHT22;7680;48.800;9.680;2023-02-03T05:35:20;5.40;99.90
15160;DHT22;7680;48.800;9.680;2023-02-03T05:37:53;5.40;99.90
15160;DHT22;7680;48.800;9.680;2023-02-03T05:40:28;5.30;99.90
15160;DHT22;7680;48.800;9.680;2023-02-03T05:43:19;5.30;99.90
15160;DHT22;7680;48.800;9.680;2023-02-03T05:45:52;5.30;99.90
15160;DHT22;7680;48.800;9.680;2023-02-03T05:48:25;5.30;99.90
15160;DHT22;7680;48.800;9.680;2023-02-03T05:50:59;5.30;99.90
15160;DHT22;7680;48.800;9.680;2023-02-03T05:53:32;5.40;99.90
15160;DHT22;7680;48.800;9.680;2023-02-03T05:56:07;5.30;99.90
15160;DHT22;7680;48.800;9.680;2023-02-03T05:58:40;5.30;99.90
15160;DHT22;7680;48.800;9.680;2023-02-03T06:01:13;5.30;99.90
15160;DHT22;7680;48.800;9.680;2023-02-03T06:03:46;5.40;99.90
15160;DHT22;7680;48.800;9.680;2023-02-03T06:06:20;5.40;99.90
15160;DHT22;7680;48.800;9.680;2023-02-03T06:08:53;5.40;99.90
15160;DHT22;7680;48.800;9.680;2023-02-03T06:11:29;5.30;99.90
15160;DHT22;7680;48.800;9.680;2023-02-03T06:14:03;5.30;99.90
15160;DHT22;7680;48.800;9.680;2023-02-03T06:16:36;5.40;99.90
15160;DHT22;7680;48.800;9.680;2023-02-03T06:19:09;5.30;99.90
15160;DHT22;7680;48.800;9.680;2023-02-03T06:21:44;5.30;99.90
15160;DHT22;7680;48.800;9.680;2023-02-03T06:24:17;5.30;99.90
15160;DHT22;7680;48.800;9.680;2023-02-03T06:26:52;5.20;99.90
15160;DHT22;7680;48.800;9.680;2023-02-03T06:29:25;5.30;99.90
15160;DHT22;7680;48.800;9.680;2023-02-03T06:31:58;5.20;99.90
15160;DHT22;7680;48.800;9.680;2023-02-03T06:34:31;5.20;99.90
15160;DHT22;7680;48.800;9.680;2023-02-03T06:37:05;5.10;99.90
15160;DHT22;7680;48.800;9.680;2023-02-03T06:39:38;5.30;99.90
15160;DHT22;7680;48.800;9.680;2023-02-03T06:42:12;5.20;99.90
15160;DHT22;7680;48.800;9.680;2023-02-03T06:44:45;5.20;99.90
15160;DHT22;7680;48.800;9.680;2023-02-03T06:47:18;5.20;99.90
15160;DHT22;7680;48.800;9.680;2023-02-03T06:49:52;5.20;99.90
15160;DHT22;7680;48.800;9.680;2023-02-03T06:52:25;5.20;99.90
15160;DHT22;7680;48.800;9.680;2023-02-03T06:54:58;5.20;99.90
15160;DHT22;7680;48.800;9.680;2023-02-03T06:57:32;5.10;99.90
15160;DHT22;7680;48.800;9.680;2023-02-03T07:00:07;5.10;99.90
15160;DHT22;7680;48.800;9.680;2023-02-03T07:02:43;5.20;99.90
15160;DHT22;7680;48.800;9.680;2023-02-03T07:05:17;5.30;99.90
15160;DHT22;7680;48.800;9.680;2023-02-03T07:07:50;5.30;99.90
15160;DHT22;7680;48.800;9.680;2023-02-03T07:10:24;5.30;99.90
15160;DHT22;7680;48.800;9.680;2023-02-03T07:13:02;5.30;99.90
15160;DHT22;7680;48.800;9.680;2023-02-03T07:15:36;5.10;99.90
15160;DHT22;7680;48.800;9.680;2023-02-03T07:18:09;5.20;99.90
15160;DHT22;7680;48.800;9.680;2023-02-03T07:20:48;5.30;99.90
15160;DHT22;7680;48.800;9.680;2023-02-03T07:23:21;5.40;99.90
15160;DHT22;7680;48.800;9.680;2023-02-03T07:25:58;5.50;99.90
15160;DHT22;7680;48.800;9.680;2023-02-03T07:28:32;5.40;99.90
15160;DHT22;7680;48.800;9.680;2023-02-03T07:31:06;5.30;99.90
15160;DHT22;7680;48.800;9.680;2023-02-03T07:33:41;5.30;99.90
15160;DHT22;7680;48.800;9.680;2023-02-03T07:36:14;5.40;99.90
15160;DHT22;7680;48.800;9.680;2023-02-03T07:38:47;5.30;99.90
15160;DHT22;7680;48.800;9.680;2023-02-03T07:41:21;5.20;99.90
15160;DHT22;7680;48.800;9.680;2023-02-03T07:43:55;5.20;99.90
15160;DHT22;7680;48.800;9.680;2023-02-03T07:46:28;5.20;99.90
15160;DHT22;7680;48.800;9.680;2023-02-03T07:49:01;5.30;99.90
15160;DHT22;7680;48.800;9.680;2023-02-03T07:51:36;5.30;99.90
15160;DHT22;7680;48.800;9.680;2023-02-03T07:54:09;5.40;99.90
15160;DHT22;7680;48.800;9.680;2023-02-03T07:56:42;5.50;99.90
15160;DHT22;7680;48.800;9.680;2023-02-03T07:59:17;5.40;99.90
15160;DHT22;7680;48.800;9.680;2023-02-03T08:01:50;5.40;99.90
15160;DHT22;7680;48.800;9.680;2023-02-03T08:04:27;5.40;99.90
15160;DHT22;7680;48.800;9.680;2023-02-03T08:07:00;5.30;99.90
15160;DHT22;7680;48.800;9.680;2023-02-03T08:09:33;5.30;99.90
15160;DHT22;7680;48.800;9.680;2023-02-03T08:12:06;5.30;99.90
15160;DHT22;7680;48.800;9.680;2023-02-03T08:14:40;5.20;99.90
15160;DHT22;7680;48.800;9.680;2023-02-03T08:17:14;5.10;99.90
15160;DHT22;7680;48.800;9.680;2023-02-03T08:19:47;5.10;99.90
15160;DHT22;7680;48.800;9.680;2023-02-03T08:22:20;5.20;99.90
15160;DHT22;7680;48.800;9.680;2023-02-03T08:24:53;5.20;99.90
15160;DHT22;7680;48.800;9.680;2023-02-03T08:27:26;5.20;99.90
15160;DHT22;7680;48.800;9.680;2023-02-03T08:30:00;5.20;99.90
15160;DHT22;7680;48.800;9.680;2023-02-03T08:32:33;5.20;99.90
15160;DHT22;7680;48.800;9.680;2023-02-03T08:35:07;5.40;99.90
15160;DHT22;7680;48.800;9.680;2023-02-03T08:37:41;5.30;99.90
15160;DHT22;7680;48.800;9.680;2023-02-03T08:40:14;5.40;99.90
15160;DHT22;7680;48.800;9.680;2023-02-03T08:42:47;5.60;99.90
15160;DHT22;7680;48.800;9.680;2023-02-03T08:45:22;5.50;99.90
15160;DHT22;7680;48.800;9.680;2023-02-03T08:47:55;5.40;99.90
15160;DHT22;7680;48.800;9.680;2023-02-03T08:50:28;5.40;99.90
15160;DHT22;7680;48.800;9.680;2023-02-03T08:53:02;5.40;99.90
15160;DHT22;7680;48.800;9.680;2023-02-03T08:55:38;5.40;99.90
15160;DHT22;7680;48.800;9.680;2023-02-03T08:58:11;5.30;99.90
15160;DHT22;7680;48.800;9.680;2023-02-03T09:00:46;5.30;99.90
15160;DHT22;7680;48.800;9.680;2023-02-03T09:03:20;5.30;99.90
15160;DHT22;7680;48.800;9.680;2023-02-03T09:05:54;5.40;99.90
15160;DHT22;7680;48.800;9.680;2023-02-03T09:08:28;5.40;99.90
15160;DHT22;7680;48.800;9.680;2023-02-03T09:11:01;5.50;99.90
15160;DHT22;7680;48.800;9.680;2023-02-03T09:13:34;5.50;99.90
15160;DHT22;7680;48.800;9.680;2023-02-03T09:16:09;5.40;99.90
15160;DHT22;7680;48.800;9.680;2023-02-03T09:18:43;5.40;99.90
15160;DHT22;7680;48.800;9.680;2023-02-03T09:21:17;5.40;99.90
15160;DHT22;7680;48.800;9.680;2023-02-03T09:24:10;5.60;99.90
15160;DHT22;7680;48.800;9.680;2023-02-03T09:26:43;5.50;99.90
15160;DHT22;7680;48.800;9.680;2023-02-03T09:29:18;5.50;99.90
15160;DHT22;7680;48.800;9.680;2023-02-03T09:31:53;5.50;99.90
15160;DHT22;7680;48.800;9.680;2023-02-03T09:34:26;5.50;99.90
15160;DHT22;7680;48.800;9.680;2023-02-03T09:36:59;5.50;99.90
15160;DHT22;7680;48.800;9.680;2023-02-03T09:39:33;5.70;99.90
15160;DHT22;7680;48.800;9.680;2023-02-03T09:42:27;5.70;99.90
15160;DHT22;7680;48.800;9.680;2023-02-03T09:45:15;5.70;99.90
15160;DHT22;7680;48.800;9.680;2023-02-03T09:47:52;5.60;99.90
15160;DHT22;7680;48.800;9.680;2023-02-03T09:50:29;5.60;99.90
15160;DHT22;7680;48.800;9.680;2023-02-03T09:53:10;5.60;99.90
15160;DHT22;7680;48.800;9.680;2023-02-03T09:55:48;5.50;99.90
15160;DHT22;7680;48.800;9.680;2023-02-03T09:58:22;5.60;99.90
15160;DHT22;7680;48.800;9.680;2023-02-03T10:00:57;5.60;99.90
15160;DHT22;7680;48.800;9.680;2023-02-03T10:03:37;5.70;99.90
15160;DHT22;7680;48.800;9.680;2023-02-03T10:06:21;5.70;99.90
15160;DHT22;7680;48.800;9.680;2023-02-03T10:09:22;5.80;99.90
15160;DHT22;7680;48.800;9.680;2023-02-03T10:12:15;5.90;99.90
15160;DHT22;7680;48.800;9.680;2023-02-03T10:15:02;6.00;99.90
15160;DHT22;7680;48.800;9.680;2023-02-03T10:17:55;6.00;99.90
15160;DHT22;7680;48.800;9.680;2023-02-03T10:20:34;6.00;99.90
15160;DHT22;7680;48.800;9.680;2023-02-03T10:23:13;6.20;99.90
15160;DHT22;7680;48.800;9.680;2023-02-03T10:25:51;6.20;99.90
15160;DHT22;7680;48.800;9.680;2023-02-03T10:28:30;6.20;99.90
15160;DHT22;7680;48.800;9.680;2023-02-03T10:31:14;6.20;99.90
15160;DHT22;7680;48.800;9.680;2023-02-03T10:33:58;6.20;99.90
15160;DHT22;7680;48.800;9.680;2023-02-03T10:36:46;6.30;99.90
15160;DHT22;7680;48.800;9.680;2023-02-03T10:39:31;6.30;99.90
15160;DHT22;7680;48.800;9.680;2023-02-03T10:42:06;6.30;99.90
15160;DHT22;7680;48.800;9.680;2023-02-03T10:44:41;6.30;99.90
15160;DHT22;7680;48.800;9.680;2023-02-03T10:47:20;6.20;99.90
15160;DHT22;7680;48.800;9.680;2023-02-03T10:49:57;6.40;99.90
15160;DHT22;7680;48.800;9.680;2023-02-03T10:52:33;6.30;99.90
15160;DHT22;7680;48.800;9.680;2023-02-03T10:55:27;6.20;99.90
15160;DHT22;7680;48.800;9.680;2023-02-03T10:58:11;6.40;99.90
15160;DHT22;7680;48.800;9.680;2023-02-03T11:00:54;6.40;99.90
15160;DHT22;7680;48.800;9.680;2023-02-03T11:03:29;6.60;99.90
15160;DHT22;7680;48.800;9.680;2023-02-03T11:06:05;6.40;99.90
15160;DHT22;7680;48.800;9.680;2023-02-03T11:08:43;6.30;99.90
15160;DHT22;7680;48.800;9.680;2023-02-03T11:11:22;6.40;99.90
15160;DHT22;7680;48.800;9.680;2023-02-03T11:14:10;6.40;99.90
15160;DHT22;7680;48.800;9.680;2023-02-03T11:16:47;6.50;99.90
15160;DHT22;7680;48.800;9.680;2023-02-03T11:19:20;6.50;99.90
15160;DHT22;7680;48.800;9.680;2023-02-03T11:21:54;6.60;99.90
15160;DHT22;7680;48.800;9.680;2023-02-03T11:24:30;6.70;99.90
15160;DHT22;7680;48.800;9.680;2023-02-03T11:27:08;6.70;99.90
15160;DHT22;7680;48.800;9.680;2023-02-03T11:29:46;6.70;99.90
15160;DHT22;7680;48.800;9.680;2023-02-03T11:32:32;6.60;99.90
15160;DHT22;7680;48.800;9.680;2023-02-03T11:35:15;6.60;99.90
15160;DHT22;7680;48.800;9.680;2023-02-03T11:37:51;6.70;99.90
15160;DHT22;7680;48.800;9.680;2023-02-03T11:40:59;6.70;99.90
15160;DHT22;7680;48.800;9.680;2023-02-03T11:43:36;6.60;99.90
15160;DHT22;7680;48.800;9.680;2023-02-03T11:46:09;6.70;99.90
15160;DHT22;7680;48.800;9.680;2023-02-03T11:48:55;6.70;99.90
15160;DHT22;7680;48.800;9.680;2023-02-03T11:51:40;6.70;99.90
15160;DHT22;7680;48.800;9.680;2023-02-03T11:54:23;6.70;99.90
15160;DHT22;7680;48.800;9.680;2023-02-03T11:57:24;6.80;99.90
15160;DHT22;7680;48.800;9.680;2023-02-03T12:00:14;6.90;99.90
15160;DHT22;7680;48.800;9.680;2023-02-03T12:03:16;6.90;99.90
15160;DHT22;7680;48.800;9.680;2023-02-03T12:06:08;6.70;99.90
15160;DHT22;7680;48.800;9.680;2023-02-03T12:08:58;6.70;99.90
15160;DHT22;7680;48.800;9.680;2023-02-03T12:11:54;6.70;99.90
15160;DHT22;7680;48.800;9.680;2023-02-03T12:14:48;6.60;99.90
15160;DHT22;7680;48.800;9.680;2023-02-03T12:17:49;6.60;99.90
15160;DHT22;7680;48.800;9.680;2023-02-03T12:20:49;6.60;99.90
15160;DHT22;7680;48.800;9.680;2023-02-03T12:23:36;6.60;99.90
15160;DHT22;7680;48.800;9.680;2023-02-03T12:26:20;6.60;99.90
15160;DHT22;7680;48.800;9.680;2023-02-03T12:29:00;6.60;99.90
15160;DHT22;7680;48.800;9.680;2023-02-03T12:31:39;6.50;99.90
15160;DHT22;7680;48.800;9.680;2023-02-03T12:34:19;6.50;99.90
15160;DHT22;7680;48.800;9.680;2023-02-03T12:37:00;6.70;99.90
15160;DHT22;7680;48.800;9.680;2023-02-03T12:39:40;6.60;99.90
15160;DHT22;7680;48.800;9.680;2023-02-03T12:42:19;6.60;99.90
15160;DHT22;7680;48.800;9.680;2023-02-03T12:44:59;6.60;99.90
15160;DHT22;7680;48.800;9.680;2023-02-03T12:47:39;6.60;99.90
15160;DHT22;7680;48.800;9.680;2023-02-03T12:50:17;6.70;99.90
15160;DHT22;7680;48.800;9.680;2023-02-03T12:52:55;6.70;99.90
15160;DHT22;7680;48.800;9.680;2023-02-03T12:55:33;6.70;99.90
15160;DHT22;7680;48.800;9.680;2023-02-03T12:58:12;6.60;99.90
15160;DHT22;7680;48.800;9.680;2023-02-03T13:00:53;6.50;99.90
15160;DHT22;7680;48.800;9.680;2023-02-03T13:03:35;6.60;99.90
15160;DHT22;7680;48.800;9.680;2023-02-03T13:06:16;6.60;99.90
15160;DHT22;7680;48.800;9.680;2023-02-03T13:09:00;6.60;99.90
15160;DHT22;7680;48.800;9.680;2023-02-03T13:11:39;6.70;99.90
15160;DHT22;7680;48.800;9.680;2023-02-03T13:14:19;6.60;99.90
15160;DHT22;7680;48.800;9.680;2023-02-03T13:16:58;6.60;99.90
15160;DHT22;7680;48.800;9.680;2023-02-03T13:19:42;6.60;99.90
15160;DHT22;7680;48.800;9.680;2023-02-03T13:22:18;6.60;99.90
15160;DHT22;7680;48.800;9.680;2023-02-03T13:24:57;6.60;99.90
15160;DHT22;7680;48.800;9.680;2023-02-03T13:27:45;6.60;99.90
15160;DHT22;7680;48.800;9.680;2023-02-03T13:30:37;6.50;99.90
15160;DHT22;7680;48.800;9.680;2023-02-03T13:33:49;6.40;99.90
15160;DHT22;7680;48.800;9.680;2023-02-03T13:36:52;6.50;99.90
15160;DHT22;7680;48.800;9.680;2023-02-03T13:39:51;6.50;99.90
15160;DHT22;7680;48.800;9.680;2023-02-03T13:42:30;6.50;99.90
15160;DHT22;7680;48.800;9.680;2023-02-03T13:45:08;6.50;99.90
15160;DHT22;7680;48.800;9.680;2023-02-03T13:47:50;6.50;99.90
15160;DHT22;7680;48.800;9.680;2023-02-03T13:50:26;6.60;99.90
15160;DHT22;7680;48.800;9.680;2023-02-03T13:53:03;6.60;99.90
15160;DHT22;7680;48.800;9.680;2023-02-03T13:55:41;6.60;99.90
15160;DHT22;7680;48.800;9.680;2023-02-03T13:58:20;6.60;99.90
15160;DHT22;7680;48.800;9.680;2023-02-03T14:01:01;6.60;99.90
15160;DHT22;7680;48.800;9.680;2023-02-03T14:03:41;6.60;99.90
15160;DHT22;7680;48.800;9.680;2023-02-03T14:09:44;6.60;99.90
15160;DHT22;7680;48.800;9.680;2023-02-03T14:12:34;6.70;99.90
15160;DHT22;7680;48.800;9.680;2023-02-03T14:15:30;6.70;99.90
15160;DHT22;7680;48.800;9.680;2023-02-03T14:18:33;6.60;99.90
15160;DHT22;7680;48.800;9.680;2023-02-03T14:21:16;6.60;99.90
15160;DHT22;7680;48.800;9.680;2023-02-03T14:23:57;6.60;99.90
15160;DHT22;7680;48.800;9.680;2023-02-03T14:26:37;6.70;99.90
15160;DHT22;7680;48.800;9.680;2023-02-03T14:29:24;6.70;99.90
15160;DHT22;7680;48.800;9.680;2023-02-03T14:31:59;6.70;99.90
15160;DHT22;7680;48.800;9.680;2023-02-03T14:34:37;6.70;99.90
15160;DHT22;7680;48.800;9.680;2023-02-03T14:37:18;6.80;99.90
15160;DHT22;7680;48.800;9.680;2023-02-03T14:40:19;6.80;99.90
15160;DHT22;7680;48.800;9.680;2023-02-03T14:46:26;6.90;99.90
15160;DHT22;7680;48.800;9.680;2023-02-03T14:49:26;6.80;99.90
15160;DHT22;7680;48.800;9.680;2023-02-03T14:52:19;6.70;99.90
15160;DHT22;7680;48.800;9.680;2023-02-03T14:55:12;6.80;99.90
15160;DHT22;7680;48.800;9.680;2023-02-03T14:57:59;6.70;99.90
15160;DHT22;7680;48.800;9.680;2023-02-03T15:00:34;6.80;99.90
15160;DHT22;7680;48.800;9.680;2023-02-03T15:03:27;6.80;99.90
15160;DHT22;7680;48.800;9.680;2023-02-03T15:06:03;6.80;99.90
15160;DHT22;7680;48.800;9.680;2023-02-03T15:08:43;6.80;99.90
15160;DHT22;7680;48.800;9.680;2023-02-03T15:11:41;6.70;99.90
15160;DHT22;7680;48.800;9.680;2023-02-03T15:14:22;6.80;99.90
15160;DHT22;7680;48.800;9.680;2023-02-03T15:16:58;6.80;99.90
15160;DHT22;7680;48.800;9.680;2023-02-03T15:19:34;6.90;99.90
15160;DHT22;7680;48.800;9.680;2023-02-03T15:22:19;6.90;99.90
15160;DHT22;7680;48.800;9.680;2023-02-03T15:24:56;6.90;99.90
15160;DHT22;7680;48.800;9.680;2023-02-03T15:27:31;6.90;99.90
15160;DHT22;7680;48.800;9.680;2023-02-03T15:30:15;6.90;99.90
15160;DHT22;7680;48.800;9.680;2023-02-03T15:32:56;6.90;99.90
15160;DHT22;7680;48.800;9.680;2023-02-03T15:35:33;7.00;99.90
15160;DHT22;7680;48.800;9.680;2023-02-03T15:38:10;7.00;99.90
15160;DHT22;7680;48.800;9.680;2023-02-03T15:40:49;6.90;99.90
15160;DHT22;7680;48.800;9.680;2023-02-03T15:43:28;6.90;99.90
15160;DHT22;7680;48.800;9.680;2023-02-03T15:46:06;7.00;99.90
15160;DHT22;7680;48.800;9.680;2023-02-03T15:48:48;6.90;99.90
15160;DHT22;7680;48.800;9.680;2023-02-03T15:51:26;6.90;99.90
15160;DHT22;7680;48.800;9.680;2023-02-03T15:54:05;7.00;99.90
15160;DHT22;7680;48.800;9.680;2023-02-03T15:56:47;7.00;99.90
15160;DHT22;7680;48.800;9.680;2023-02-03T15:59:30;7.00;99.90
15160;DHT22;7680;48.800;9.680;2023-02-03T16:02:13;6.90;99.90
15160;DHT22;7680;48.800;9.680;2023-02-03T16:04:49;6.80;99.90
15160;DHT22;7680;48.800;9.680;2023-02-03T16:07:25;6.90;99.90
15160;DHT22;7680;48.800;9.680;2023-02-03T16:10:00;6.80;99.90
15160;DHT22;7680;48.800;9.680;2023-02-03T16:12:34;6.80;99.90
15160;DHT22;7680;48.800;9.680;2023-02-03T16:15:20;6.80;99.90
15160;DHT22;7680;48.800;9.680;2023-02-03T16:17:55;6.70;99.90
15160;DHT22;7680;48.800;9.680;2023-02-03T16:20:29;6.70;99.90
15160;DHT22;7680;48.800;9.680;2023-02-03T16:23:13;6.60;99.90
15160;DHT22;7680;48.800;9.680;2023-02-03T16:26:15;6.60;99.90
15160;DHT22;7680;48.800;9.680;2023-02-03T16:29:13;6.60;99.90
15160;DHT22;7680;48.800;9.680;2023-02-03T16:32:16;6.60;99.90
15160;DHT22;7680;48.800;9.680;2023-02-03T16:35:08;6.60;99.90
15160;DHT22;7680;48.800;9.680;2023-02-03T16:38:05;6.60;99.90
15160;DHT22;7680;48.800;9.680;2023-02-03T16:40:56;6.50;99.90
15160;DHT22;7680;48.800;9.680;2023-02-03T16:43:47;6.50;99.90
15160;DHT22;7680;48.800;9.680;2023-02-03T16:46:39;6.50;99.90
15160;DHT22;7680;48.800;9.680;2023-02-03T16:49:30;6.50;99.90
15160;DHT22;7680;48.800;9.680;2023-02-03T16:52:20;6.70;99.90
15160;DHT22;7680;48.800;9.680;2023-02-03T16:54:53;6.60;99.90
15160;DHT22;7680;48.800;9.680;2023-02-03T16:57:26;6.40;99.90
15160;DHT22;7680;48.800;9.680;2023-02-03T17:00:00;6.40;99.90
15160;DHT22;7680;48.800;9.680;2023-02-03T17:02:34;6.40;99.90
15160;DHT22;7680;48.800;9.680;2023-02-03T17:05:07;6.40;99.90
15160;DHT22;7680;48.800;9.680;2023-02-03T17:07:40;6.40;99.90
15160;DHT22;7680;48.800;9.680;2023-02-03T17:10:14;6.40;99.90
15160;DHT22;7680;48.800;9.680;2023-02-03T17:12:50;6.40;99.90
15160;DHT22;7680;48.800;9.680;2023-02-03T17:15:23;6.40;99.90
15160;DHT22;7680;48.800;9.680;2023-02-03T17:17:58;6.40;99.90
15160;DHT22;7680;48.800;9.680;2023-02-03T17:20:31;6.50;99.90
15160;DHT22;7680;48.800;9.680;2023-02-03T17:23:04;6.40;99.90
15160;DHT22;7680;48.800;9.680;2023-02-03T17:25:38;6.60;99.90
15160;DHT22;7680;48.800;9.680;2023-02-03T17:28:12;6.50;99.90
15160;DHT22;7680;48.800;9.680;2023-02-03T17:30:54;6.50;99.90